createdAt,value
2022-08-05T00:01:28.329Z,10.80
2022-08-05T00:06:35.793Z,11.00
2022-08-05T00:11:48.666Z,11.00
2022-08-05T00:16:53.967Z,10.40
2022-08-05T00:21:56.810Z,11.00
2022-08-05T00:27:01.245Z,11.00
2022-08-05T00:32:10.986Z,9.00
2022-08-05T00:37:17.144Z,10.80
2022-08-05T00:42:32.663Z,10.00
2022-08-05T00:47:56.301Z,11.00
2022-08-05T00:52:58.249Z,10.00
2022-08-05T00:58:02.457Z,9.40
2022-08-05T01:03:08.118Z,11.00
2022-08-05T01:08:41.181Z,11.40
2022-08-05T01:13:58.876Z,11.00
2022-08-05T01:19:21.119Z,12.00
2022-08-05T01:25:00.805Z,11.40
2022-08-05T01:30:05.767Z,10.00
2022-08-05T01:35:50.657Z,9.40
2022-08-05T01:40:43.920Z,10.20
2022-08-05T01:45:47.998Z,11.00
2022-08-05T01:51:00.025Z,9.40
2022-08-05T01:56:04.477Z,10.60
2022-08-05T02:01:08.732Z,11.00
2022-08-05T02:06:33.881Z,11.00
2022-08-05T02:11:42.159Z,10.40
2022-08-05T02:16:53.058Z,9.00
2022-08-05T02:21:59.524Z,11.00
2022-08-05T02:27:09.846Z,11.40
2022-08-05T02:32:23.714Z,10.00
2022-08-05T02:37:27.341Z,12.00
2022-08-05T02:42:36.326Z,10.00
2022-08-05T02:48:07.375Z,10.40
2022-08-05T02:53:03.368Z,11.00
2022-08-05T02:58:09.287Z,10.60
2022-08-05T03:03:17.711Z,11.00
2022-08-05T03:08:29.911Z,11.00
2022-08-05T03:13:51.781Z,10.40
2022-08-05T03:18:57.012Z,10.20
2022-08-05T03:23:59.730Z,10.40
2022-08-05T03:29:02.574Z,10.60
2022-08-05T03:34:07.908Z,11.00
2022-08-05T03:39:26.838Z,11.80
2022-08-05T03:44:30.509Z,11.50
2022-08-05T03:49:51.969Z,11.60
2022-08-05T03:55:34.207Z,11.00
2022-08-05T04:00:21.786Z,11.20
2022-08-05T04:05:33.813Z,11.00
2022-08-05T04:10:38.300Z,11.80
2022-08-05T04:15:52.709Z,11.00
2022-08-05T04:21:05.852Z,10.80
2022-08-05T04:26:08.582Z,11.00
2022-08-05T04:31:16.386Z,11.00
2022-08-05T04:36:45.080Z,11.40
2022-08-05T04:41:43.178Z,10.80
2022-08-05T04:46:48.623Z,10.00
2022-08-05T04:52:00.463Z,11.00
2022-08-05T04:57:03.615Z,11.00
2022-08-05T05:02:36.282Z,10.00
2022-08-05T05:07:35.456Z,11.00
2022-08-05T05:12:38.391Z,9.40
2022-08-05T05:17:55.610Z,11.00
2022-08-05T05:23:06.803Z,8.20
2022-08-05T05:28:11.400Z,9.00
2022-08-05T05:33:17.199Z,9.00
2022-08-05T05:38:26.809Z,8.00
2022-08-05T05:43:56.756Z,8.40
2022-08-05T05:48:53.279Z,7.60
2022-08-05T05:53:59.853Z,8.00
2022-08-05T05:59:05.633Z,6.80
2022-08-05T06:04:11.679Z,8.00
2022-08-05T06:09:25.765Z,8.00
2022-08-05T06:14:40.194Z,6.80
2022-08-05T06:19:43.306Z,8.20
2022-08-05T06:25:00.562Z,8.00
2022-08-05T06:30:17.828Z,6.40
2022-08-05T06:36:07.252Z,6.00
2022-08-05T06:40:47.503Z,5.80
2022-08-05T06:46:03.969Z,7.00
2022-08-05T06:51:11.996Z,6.40
2022-08-05T06:56:29.359Z,6.60
2022-08-05T07:01:32.975Z,5.80
2022-08-05T07:06:35.885Z,6.20
2022-08-05T07:11:40.164Z,8.80
2022-08-05T07:17:59.115Z,6.60
2022-08-05T07:22:15.824Z,6.20
2022-08-05T07:27:19.961Z,6.20
2022-08-05T07:32:26.250Z,5.80
2022-08-05T07:37:37.525Z,6.60
2022-08-05T07:42:43.962Z,7.40
2022-08-05T07:47:46.932Z,6.60
2022-08-05T07:52:49.816Z,7.40
2022-08-05T07:58:02.385Z,6.00
2022-08-05T08:03:15.434Z,7.00
2022-08-05T08:08:19.779Z,9.00
2022-08-05T08:13:28.991Z,7.40
2022-08-05T08:18:32.287Z,7.00
2022-08-05T08:24:01.884Z,6.80
2022-08-05T08:29:22.220Z,6.80
2022-08-05T08:34:30.557Z,7.00
2022-08-05T08:39:37.627Z,7.80
2022-08-05T08:45:18.684Z,6.60
2022-08-05T08:50:32.931Z,8.00
2022-08-05T08:55:31.952Z,6.60
2022-08-05T09:00:52.669Z,7.20
2022-08-05T09:06:07.367Z,6.60
2022-08-05T09:11:13.989Z,6.00
2022-08-05T09:16:18.220Z,6.40
2022-08-05T09:22:17.911Z,6.00
2022-08-05T09:26:47.977Z,7.00
2022-08-05T09:32:46.601Z,6.00
2022-08-05T09:38:16.163Z,6.40
2022-08-05T09:42:51.581Z,6.00
2022-08-05T09:47:58.196Z,6.00
2022-08-05T09:53:01.424Z,6.00
2022-08-05T09:58:11.221Z,5.20
2022-08-05T10:03:15.454Z,6.80
2022-08-05T10:08:36.237Z,5.40
2022-08-05T10:13:48.050Z,5.00
2022-08-05T10:18:53.426Z,6.00
2022-08-05T10:24:00.474Z,6.20
2022-08-05T10:29:03.779Z,5.40
2022-08-05T10:34:08.315Z,5.20
2022-08-05T10:39:15.156Z,6.00
2022-08-05T10:44:28.034Z,6.00
2022-08-05T10:49:48.854Z,5.20
2022-08-05T10:55:04.103Z,5.20
2022-08-05T11:00:19.718Z,4.80
2022-08-05T11:05:29.019Z,5.00
2022-08-05T11:10:34.982Z,5.00
2022-08-05T11:16:00.920Z,6.00
2022-08-05T11:21:11.640Z,4.60
2022-08-05T11:26:32.224Z,5.00
2022-08-05T11:31:58.503Z,5.00
2022-08-05T11:37:00.211Z,5.00
2022-08-05T11:42:04.556Z,5.00
2022-08-05T11:47:10.575Z,4.80
2022-08-05T11:52:29.165Z,5.40
2022-08-05T11:58:08.679Z,5.40
2022-08-05T12:02:56.610Z,5.60
2022-08-05T12:08:08.221Z,4.00
2022-08-05T12:13:16.936Z,4.00
2022-08-05T12:18:32.870Z,4.80
2022-08-05T12:23:43.305Z,4.00
2022-08-05T12:28:46.382Z,4.00
2022-08-05T12:33:49.781Z,4.60
2022-08-05T12:38:54.060Z,3.80
2022-08-05T12:43:58.036Z,4.20
2022-08-05T12:49:01.780Z,4.40
2022-08-05T12:54:23.609Z,4.80
2022-08-05T13:01:58.423Z,4.00
2022-08-05T13:04:54.709Z,4.00
2022-08-05T13:09:59.670Z,4.00
2022-08-05T13:15:06.724Z,4.00
2022-08-05T13:20:12.066Z,4.00
2022-08-05T13:25:19.170Z,4.00
2022-08-05T13:30:34.188Z,4.00
2022-08-05T13:35:46.947Z,4.00
2022-08-05T13:40:55.926Z,4.00
2022-08-05T13:45:58.863Z,3.20
2022-08-05T13:51:06.522Z,3.00
2022-08-05T13:56:18.488Z,3.00
2022-08-05T14:01:27.489Z,3.80
2022-08-05T14:06:47.687Z,3.80
2022-08-05T14:12:17.583Z,3.00
2022-08-05T14:17:23.307Z,3.60
2022-08-05T14:22:30.455Z,3.80
2022-08-05T14:27:38.488Z,2.80
2022-08-05T14:32:50.245Z,3.00
2022-08-05T14:37:55.645Z,3.00
2022-08-05T14:42:59.907Z,3.00
2022-08-05T14:48:05.948Z,2.00
2022-08-05T14:53:12.357Z,3.20
2022-08-05T14:58:17.972Z,3.00
2022-08-05T15:03:22.961Z,3.00
2022-08-05T15:08:58.215Z,3.00
2022-08-05T15:13:50.461Z,2.00
2022-08-05T15:18:53.284Z,3.00
2022-08-05T15:23:56.101Z,3.00
2022-08-05T15:29:02.509Z,3.00
2022-08-05T15:34:31.381Z,2.20
2022-08-05T15:41:02.072Z,2.00
2022-08-05T15:44:54.769Z,3.00
2022-08-05T15:49:59.478Z,3.00
2022-08-05T15:55:03.558Z,3.00
2022-08-05T16:00:09.134Z,2.00
2022-08-05T16:05:11.968Z,2.40
2022-08-05T16:10:14.700Z,2.80
2022-08-05T16:15:20.037Z,2.40
2022-08-05T16:20:23.125Z,2.00
2022-08-05T16:25:33.861Z,3.00
2022-08-05T16:30:38.416Z,2.20
2022-08-05T16:35:42.308Z,3.00
2022-08-05T16:40:52.154Z,2.20
2022-08-05T16:46:07.663Z,3.00
2022-08-05T16:51:16.086Z,3.00
2022-08-05T16:56:18.853Z,3.00
2022-08-05T17:01:24.528Z,2.80
2022-08-05T17:06:27.820Z,3.00
2022-08-05T17:11:31.197Z,3.00
2022-08-05T17:16:53.857Z,3.00
2022-08-05T17:21:56.739Z,2.20
2022-08-05T17:26:59.503Z,3.00
2022-08-05T17:32:03.685Z,3.00
2022-08-05T17:37:32.087Z,2.00
2022-08-05T17:42:32.310Z,3.00
2022-08-05T17:47:37.519Z,3.00
2022-08-05T17:52:52.556Z,2.00
2022-08-05T17:58:00.458Z,3.00
2022-08-05T18:03:04.682Z,2.00
2022-08-05T18:08:11.383Z,2.60
2022-08-05T18:13:14.233Z,2.00
2022-08-05T18:18:18.506Z,3.00
2022-08-05T18:23:21.242Z,2.20
2022-08-05T18:28:28.485Z,2.00
2022-08-05T18:33:37.749Z,2.20
2022-08-05T18:38:50.124Z,2.00
2022-08-05T18:43:53.664Z,3.00
2022-08-05T18:49:18.535Z,2.00
2022-08-05T18:54:22.054Z,1.80
2022-08-05T18:59:43.651Z,2.00
2022-08-05T19:05:02.981Z,1.40
2022-08-05T19:10:12.688Z,1.80
2022-08-05T19:15:56.806Z,1.60
2022-08-05T19:20:46.714Z,1.80
2022-08-05T19:25:49.756Z,2.00
2022-08-05T19:31:05.898Z,1.00
2022-08-05T19:36:10.787Z,2.00
2022-08-05T19:41:17.845Z,2.00
2022-08-05T19:46:30.113Z,1.00
2022-08-05T19:52:05.917Z,1.00
2022-08-05T19:56:58.377Z,1.00
2022-08-05T20:02:02.233Z,1.00
2022-08-05T20:07:10.434Z,2.40
2022-08-05T20:12:16.356Z,2.00
2022-08-05T20:17:23.482Z,1.60
2022-08-05T20:22:28.318Z,2.00
2022-08-05T20:27:41.574Z,1.80
2022-08-05T20:32:45.483Z,2.00
2022-08-05T20:38:06.770Z,3.00
2022-08-05T20:43:11.690Z,3.00
2022-08-05T20:48:16.607Z,2.00
2022-08-05T20:53:36.828Z,3.00
2022-08-05T20:58:44.111Z,3.60
2022-08-05T21:03:48.058Z,3.00
2022-08-05T21:08:52.914Z,5.00
2022-08-05T21:13:56.991Z,3.00
2022-08-05T21:19:00.937Z,2.00
2022-08-05T21:24:07.223Z,1.20
2022-08-05T21:29:12.536Z,3.00
2022-08-05T21:34:20.374Z,3.00
2022-08-05T21:39:27.868Z,3.00
2022-08-05T21:44:31.756Z,3.00
2022-08-05T21:49:58.584Z,3.00
2022-08-05T21:55:07.132Z,2.00
2022-08-05T22:00:11.925Z,2.00
2022-08-05T22:05:17.192Z,2.00
2022-08-05T22:10:26.538Z,3.00
2022-08-05T22:16:02.728Z,3.00
2022-08-05T22:20:52.925Z,3.00
2022-08-05T22:26:16.813Z,3.00
2022-08-05T22:31:19.465Z,3.00
2022-08-05T22:36:23.780Z,2.00
2022-08-05T22:42:09.401Z,2.20
2022-08-05T22:46:51.616Z,3.00
2022-08-05T22:52:06.136Z,3.00
2022-08-05T22:57:11.983Z,3.20
2022-08-05T23:02:16.798Z,3.00
2022-08-05T23:07:20.000Z,2.60
2022-08-05T23:12:28.581Z,2.60
2022-08-05T23:17:35.005Z,2.80
2022-08-05T23:22:40.809Z,2.20
2022-08-05T23:28:00.281Z,3.00
2022-08-05T23:33:03.653Z,3.60
2022-08-05T23:38:06.462Z,4.00
2022-08-05T23:43:24.773Z,4.00
2022-08-05T23:48:39.162Z,3.20
2022-08-05T23:53:46.417Z,4.00
2022-08-05T23:58:51.101Z,3.20
